createdAt,value
2017-05-07T00:00:03.604Z,1011.12
2017-05-07T00:05:03.020Z,1011.12
2017-05-07T00:10:02.781Z,1011.16
2017-05-07T00:15:03.357Z,1011.2
2017-05-07T00:20:03.022Z,1011.18
2017-05-07T00:25:03.582Z,1011.26
2017-05-07T00:30:03.310Z,1011.27
2017-05-07T00:35:03.054Z,1011.28
2017-05-07T00:40:02.763Z,1011.35
2017-05-07T00:45:03.500Z,1011.33
2017-05-07T00:50:03.243Z,1011.38
2017-05-07T00:55:09.849Z,1011.45
2017-05-07T01:00:03.532Z,1011.43
2017-05-07T01:05:03.400Z,1011.45
2017-05-07T01:10:03.028Z,1011.39
2017-05-07T01:15:02.692Z,1011.42
2017-05-07T01:20:03.366Z,1011.4
2017-05-07T01:25:03.147Z,1011.39
2017-05-07T01:30:02.774Z,1011.43
2017-05-07T01:35:03.540Z,1011.44
2017-05-07T01:40:03.194Z,1011.5
2017-05-07T01:45:03.802Z,1011.53
2017-05-07T01:50:03.405Z,1011.52
2017-05-07T01:55:03.165Z,1011.57
2017-05-07T02:00:02.801Z,1011.59
2017-05-07T02:05:03.475Z,1011.66
2017-05-07T02:10:03.416Z,1011.64
2017-05-07T02:15:03.152Z,1011.73
2017-05-07T02:20:02.959Z,1011.69
2017-05-07T02:25:02.680Z,1011.71
2017-05-07T02:30:03.320Z,1011.66
2017-05-07T02:35:02.933Z,1011.64
2017-05-07T02:40:02.731Z,1011.65
2017-05-07T02:45:03.536Z,1011.7
2017-05-07T02:50:03.136Z,1011.66
2017-05-07T02:55:02.998Z,1011.65
2017-05-07T03:00:02.846Z,1011.71
2017-05-07T03:05:03.496Z,1011.8
2017-05-07T03:10:03.355Z,1011.81
2017-05-07T03:15:02.966Z,1011.91
2017-05-07T03:20:02.719Z,1011.9
2017-05-07T03:25:03.528Z,1011.89
2017-05-07T03:30:03.229Z,1011.88
2017-05-07T03:35:02.972Z,1011.89
2017-05-07T03:40:03.667Z,1011.88
2017-05-07T03:45:34.345Z,1011.88
2017-05-07T03:50:02.945Z,1011.93
2017-05-07T03:55:03.624Z,1011.98
2017-05-07T04:00:03.670Z,1011.95
2017-05-07T04:05:03.482Z,1012.02
2017-05-07T04:10:03.143Z,1012.04
2017-05-07T04:15:02.715Z,1012.08
2017-05-07T04:20:18.500Z,1012.09
2017-05-07T04:25:03.385Z,1012.11
2017-05-07T04:30:02.707Z,1012.13
2017-05-07T04:35:03.578Z,1012.17
2017-05-07T04:40:03.268Z,1012.28
2017-05-07T04:45:03.098Z,1012.31
2017-05-07T04:50:03.438Z,1012.28
2017-05-07T04:55:03.184Z,1012.26
2017-05-07T05:00:02.798Z,1012.2
2017-05-07T05:05:03.489Z,1012.17
2017-05-07T05:10:03.100Z,1012.27
2017-05-07T05:15:02.671Z,1012.32
2017-05-07T05:20:03.445Z,1012.41
2017-05-07T05:25:03.095Z,1012.47
2017-05-07T05:30:02.902Z,1012.52
2017-05-07T05:35:03.532Z,1012.6
2017-05-07T05:40:03.251Z,1012.66
2017-05-07T05:45:02.997Z,1012.67
2017-05-07T05:50:03.627Z,1012.85
2017-05-07T05:55:03.400Z,1012.81
2017-05-07T06:00:02.983Z,1012.87
2017-05-07T06:05:02.698Z,1012.94
2017-05-07T06:10:03.578Z,1012.93
2017-05-07T06:15:03.174Z,1013.03
2017-05-07T06:20:02.785Z,1013.1
2017-05-07T06:25:03.348Z,1013.1
2017-05-07T06:30:02.986Z,1013.12
2017-05-07T06:35:02.736Z,1013.2
2017-05-07T06:40:03.444Z,1013.25
2017-05-07T06:45:03.039Z,1013.34
2017-05-07T06:50:02.795Z,1013.43
2017-05-07T06:55:03.422Z,1013.55
2017-05-07T07:00:03.120Z,1013.59
2017-05-07T07:05:02.704Z,1013.56
2017-05-07T07:10:03.540Z,1013.67
2017-05-07T07:15:03.231Z,1013.68
2017-05-07T07:20:02.799Z,1013.7
2017-05-07T07:25:03.572Z,1013.74
2017-05-07T07:30:02.673Z,1013.76
2017-05-07T07:35:03.409Z,1013.8
2017-05-07T07:40:03.288Z,1013.88
2017-05-07T07:45:03.278Z,1013.95
2017-05-07T07:50:03.307Z,1013.93
2017-05-07T07:55:03.579Z,1013.98
2017-05-07T08:00:03.434Z,1014.02
2017-05-07T08:05:03.615Z,1014.02
2017-05-07T08:10:02.816Z,1014.07
2017-05-07T08:15:02.813Z,1014.05
2017-05-07T08:20:03.549Z,1014.04
2017-05-07T08:25:03.167Z,1014.13
2017-05-07T08:30:03.150Z,1014.1
2017-05-07T08:35:02.996Z,1014.11
2017-05-07T08:40:02.783Z,1014.23
2017-05-07T08:45:03.409Z,1014.3
2017-05-07T08:50:03.178Z,1014.38
2017-05-07T08:55:03.042Z,1014.46
2017-05-07T09:00:02.906Z,1014.54
2017-05-07T09:05:03.475Z,1014.56
2017-05-07T09:10:03.207Z,1014.65
2017-05-07T09:15:02.825Z,1014.73
2017-05-07T09:20:03.593Z,1014.76
2017-05-07T09:25:03.453Z,1014.81
2017-05-07T09:30:03.212Z,1014.86
2017-05-07T09:35:03.225Z,1014.86
2017-05-07T09:40:03.414Z,1014.93
2017-05-07T09:45:03.437Z,1015
2017-05-07T09:50:03.347Z,1015.05
2017-05-07T09:55:03.297Z,1015.04
2017-05-07T10:00:03.485Z,1015.08
2017-05-07T10:05:03.227Z,1015.07
2017-05-07T10:10:03.078Z,1015.03
2017-05-07T10:15:02.730Z,1015.09
2017-05-07T10:20:02.708Z,1015.06
2017-05-07T10:25:03.393Z,1015.08
2017-05-07T10:30:03.561Z,1015.08
2017-05-07T10:35:03.020Z,1015.1
2017-05-07T10:40:03.161Z,1015.08
2017-05-07T10:45:02.799Z,1015.03
2017-05-07T10:50:03.575Z,1015.06
2017-05-07T10:55:03.254Z,1015.03
2017-05-07T11:00:03.119Z,1015
2017-05-07T11:05:03.077Z,1014.96
2017-05-07T11:10:03.540Z,1014.94
2017-05-07T11:15:03.621Z,1015.02
2017-05-07T11:20:02.934Z,1014.99
2017-05-07T11:25:03.295Z,1015.03
2017-05-07T11:30:02.665Z,1015.05
2017-05-07T11:35:03.611Z,1015.05
2017-05-07T11:40:02.657Z,1014.97
2017-05-07T11:45:03.340Z,1015.01
2017-05-07T11:50:03.245Z,1014.97
2017-05-07T11:55:03.081Z,1014.96
2017-05-07T12:00:02.802Z,1014.94
2017-05-07T12:05:03.584Z,1014.95
2017-05-07T12:10:03.471Z,1015.02
2017-05-07T12:15:03.384Z,1015.08
2017-05-07T12:20:03.111Z,1015.04
2017-05-07T12:25:02.896Z,1015.09
2017-05-07T12:30:02.747Z,1015.17
2017-05-07T12:35:03.399Z,1015.22
2017-05-07T12:40:03.277Z,1015.22
2017-05-07T12:45:03.212Z,1015.27
2017-05-07T12:50:03.305Z,1015.27
2017-05-07T12:55:03.328Z,1015.37
2017-05-07T13:00:03.384Z,1015.34
2017-05-07T13:05:03.225Z,1015.25
2017-05-07T13:10:03.549Z,1015.29
2017-05-07T13:15:03.503Z,1015.28
2017-05-07T13:20:02.846Z,1015.37
2017-05-07T13:25:03.405Z,1015.34
2017-05-07T13:30:02.714Z,1015.33
2017-05-07T13:35:03.577Z,1015.29
2017-05-07T13:40:03.269Z,1015.26
2017-05-07T13:45:02.976Z,1015.33
2017-05-07T13:50:03.542Z,1015.32
2017-05-07T13:55:03.316Z,1015.31
2017-05-07T14:00:02.784Z,1015.3
2017-05-07T14:05:03.176Z,1015.36
2017-05-07T14:10:03.485Z,1015.29
2017-05-07T14:15:03.354Z,1015.28
2017-05-07T14:20:02.743Z,1015.28
2017-05-07T14:25:03.103Z,1015.22
2017-05-07T14:30:03.668Z,1015.25
2017-05-07T14:35:03.268Z,1015.22
2017-05-07T14:40:03.164Z,1015.25
2017-05-07T14:45:02.946Z,1015.25
2017-05-07T14:50:03.354Z,1015.24
2017-05-07T14:55:03.199Z,1015.27
2017-05-07T15:00:03.225Z,1015.32
2017-05-07T15:05:02.924Z,1015.31
2017-05-07T15:10:03.468Z,1015.32
2017-05-07T15:15:03.200Z,1015.4
2017-05-07T15:20:02.719Z,1015.41
2017-05-07T15:25:03.042Z,1015.45
2017-05-07T15:30:03.540Z,1015.47
2017-05-07T15:35:02.936Z,1015.42
2017-05-07T15:40:02.670Z,1015.46
2017-05-07T15:45:03.424Z,1015.47
2017-05-07T15:50:02.833Z,1015.49
2017-05-07T15:55:02.810Z,1015.52
2017-05-07T16:00:03.300Z,1015.51
2017-05-07T16:05:02.913Z,1015.58
2017-05-07T16:10:02.666Z,1015.56
2017-05-07T16:15:03.497Z,1015.61
2017-05-07T16:20:02.797Z,1015.62
2017-05-07T16:25:02.873Z,1015.59
2017-05-07T16:30:02.746Z,1015.61
2017-05-07T16:35:03.344Z,1015.61
2017-05-07T16:40:03.035Z,1015.63
2017-05-07T16:45:02.795Z,1015.66
2017-05-07T16:50:03.504Z,1015.66
2017-05-07T16:55:03.064Z,1015.64
2017-05-07T17:00:02.911Z,1015.7
2017-05-07T17:05:02.690Z,1015.82
2017-05-07T17:10:03.585Z,1015.89
2017-05-07T17:15:03.209Z,1015.87
2017-05-07T17:20:03.001Z,1015.85
2017-05-07T17:25:03.644Z,1015.88
2017-05-07T17:30:03.489Z,1015.92
2017-05-07T17:35:03.086Z,1015.91
2017-05-07T17:40:02.754Z,1015.87
2017-05-07T17:45:03.412Z,1015.93
2017-05-07T17:50:03.155Z,1015.98
2017-05-07T17:55:02.890Z,1016.03
2017-05-07T18:00:03.580Z,1016.08
2017-05-07T18:05:03.204Z,1016.09
2017-05-07T18:10:03.141Z,1016.06
2017-05-07T18:15:02.911Z,1016.16
2017-05-07T18:20:02.893Z,1016.16
2017-05-07T18:25:02.929Z,1016.2
2017-05-07T18:30:03.079Z,1016.22
2017-05-07T18:35:03.535Z,1016.29
2017-05-07T18:40:02.948Z,1016.29
2017-05-07T18:45:03.109Z,1016.41
2017-05-07T18:50:03.606Z,1016.49
2017-05-07T18:55:02.751Z,1016.5
2017-05-07T19:00:02.727Z,1016.52
2017-05-07T19:05:02.722Z,1016.58
2017-05-07T19:10:02.957Z,1016.66
2017-05-07T19:15:03.603Z,1016.68
2017-05-07T19:20:03.521Z,1016.78
2017-05-07T19:25:03.324Z,1016.82
2017-05-07T19:30:03.115Z,1016.9
2017-05-07T19:35:02.875Z,1016.95
2017-05-07T19:40:02.766Z,1017.06
2017-05-07T19:45:03.498Z,1017.18
2017-05-07T19:50:03.181Z,1017.21
2017-05-07T19:55:02.969Z,1017.32
2017-05-07T20:00:03.616Z,1017.33
2017-05-07T20:05:03.374Z,1017.39
2017-05-07T20:10:03.062Z,1017.38
2017-05-07T20:15:02.840Z,1017.53
2017-05-07T20:20:02.871Z,1017.51
2017-05-07T20:25:02.671Z,1017.62
2017-05-07T20:30:02.658Z,1017.65
2017-05-07T20:35:03.397Z,1017.66
2017-05-07T20:40:03.130Z,1017.7
2017-05-07T20:45:02.888Z,1017.64
2017-05-07T20:50:03.655Z,1017.69
2017-05-07T20:55:03.324Z,1017.82
2017-05-07T21:00:03.169Z,1017.79
2017-05-07T21:05:02.851Z,1017.85
2017-05-07T21:10:03.693Z,1017.83
2017-05-07T21:15:03.279Z,1017.94
2017-05-07T21:20:02.873Z,1017.91
2017-05-07T21:25:03.648Z,1017.86
2017-05-07T21:30:03.482Z,1017.84
2017-05-07T21:35:03.113Z,1017.9
2017-05-07T21:40:02.967Z,1017.91
2017-05-07T21:45:03.522Z,1017.89
2017-05-07T21:50:03.141Z,1017.95
2017-05-07T21:55:02.796Z,1017.91
2017-05-07T22:00:03.580Z,1017.92
2017-05-07T22:05:03.371Z,1017.9
2017-05-07T22:10:03.019Z,1017.91
2017-05-07T22:15:02.656Z,1017.95
2017-05-07T22:20:03.416Z,1018
2017-05-07T22:25:02.975Z,1018.01
2017-05-07T22:30:03.577Z,1018
2017-05-07T22:35:03.387Z,1018.05
2017-05-07T22:40:03.120Z,1018.1
2017-05-07T22:45:02.729Z,1018.11
2017-05-07T22:50:03.437Z,1018.03
2017-05-07T22:55:02.986Z,1018.03
2017-05-07T23:00:03.615Z,1018.12
2017-05-07T23:05:02.982Z,1018.14
2017-05-07T23:10:02.806Z,1018.19
2017-05-07T23:15:03.385Z,1018.22
2017-05-07T23:20:02.979Z,1018.26
2017-05-07T23:25:03.594Z,1018.27
2017-05-07T23:30:03.313Z,1018.29
2017-05-07T23:35:02.876Z,1018.32
2017-05-07T23:40:03.499Z,1018.32
2017-05-07T23:45:03.135Z,1018.22
2017-05-07T23:50:02.747Z,1018.24
2017-05-07T23:55:03.344Z,1018.25
